createdAt,value
2019-03-09T00:01:52.682Z,59.87
2019-03-09T00:04:27.106Z,59.88
2019-03-09T00:07:01.740Z,60.02
2019-03-09T00:09:34.812Z,60.00
2019-03-09T00:12:09.277Z,60.15
2019-03-09T00:14:43.811Z,60.10
2019-03-09T00:17:18.107Z,60.33
2019-03-09T00:19:53.291Z,60.33
2019-03-09T00:24:43.693Z,60.24
2019-03-09T00:27:33.699Z,60.20
2019-03-09T00:30:18.792Z,60.33
2019-03-09T00:32:53.277Z,60.03
2019-03-09T00:35:27.741Z,60.17
2019-03-09T00:38:03.308Z,60.39
2019-03-09T00:40:39.683Z,59.79
2019-03-09T00:43:15.348Z,59.79
2019-03-09T00:45:49.929Z,59.78
2019-03-09T00:48:24.863Z,59.67
2019-03-09T00:50:57.713Z,59.60
2019-03-09T00:53:32.128Z,59.45
2019-03-09T00:56:06.775Z,59.54
2019-03-09T00:58:41.278Z,59.35
2019-03-09T01:01:16.122Z,59.08
2019-03-09T01:03:51.676Z,58.69
2019-03-09T01:06:26.746Z,58.34
2019-03-09T01:09:01.298Z,58.34
2019-03-09T01:11:36.032Z,58.43
2019-03-09T01:14:08.877Z,58.09
2019-03-09T01:16:43.295Z,57.91
2019-03-09T01:19:17.791Z,57.72
2019-03-09T01:21:52.293Z,57.44
2019-03-09T01:24:26.699Z,57.23
2019-03-09T01:27:01.102Z,57.15
2019-03-09T01:29:35.468Z,57.01
2019-03-09T01:32:09.955Z,57.01
2019-03-09T01:34:42.865Z,57.03
2019-03-09T01:37:17.129Z,57.02
2019-03-09T01:39:51.649Z,56.44
2019-03-09T01:42:25.954Z,56.44
2019-03-09T01:45:00.366Z,56.42
2019-03-09T01:47:34.953Z,56.44
2019-03-09T01:50:07.892Z,56.35
2019-03-09T01:52:42.288Z,56.36
2019-03-09T01:55:16.782Z,56.33
2019-03-09T01:57:51.128Z,56.05
2019-03-09T02:00:25.652Z,56.12
2019-03-09T02:03:00.086Z,56.12
2019-03-09T02:05:34.770Z,55.76
2019-03-09T02:08:10.787Z,55.76
2019-03-09T02:10:43.960Z,55.56
2019-03-09T02:13:18.279Z,55.45
2019-03-09T02:15:52.711Z,55.66
2019-03-09T02:18:27.099Z,55.35
2019-03-09T02:21:01.674Z,55.27
2019-03-09T02:23:36.119Z,55.27
2019-03-09T02:26:10.713Z,55.15
2019-03-09T02:30:08.327Z,54.35
2019-03-09T02:32:42.909Z,54.35
2019-03-09T02:35:17.344Z,54.65
2019-03-09T02:37:51.961Z,54.60
2019-03-09T02:40:27.350Z,54.45
2019-03-09T02:43:01.952Z,54.23
2019-03-09T02:45:36.734Z,54.23
2019-03-09T02:48:12.581Z,54.24
2019-03-09T02:50:59.292Z,53.96
2019-03-09T02:53:33.952Z,54.06
2019-03-09T02:56:08.293Z,53.99
2019-03-09T03:05:37.054Z,53.40
2019-03-09T03:08:13.601Z,53.33
2019-03-09T03:10:46.867Z,53.39
2019-03-09T03:13:21.282Z,53.58
2019-03-09T03:15:55.955Z,53.61
2019-03-09T03:18:30.284Z,53.21
2019-03-09T03:21:05.137Z,53.03
2019-03-09T03:23:39.680Z,52.67
2019-03-09T03:26:14.308Z,52.73
2019-03-09T03:28:48.954Z,52.64
2019-03-09T03:31:23.640Z,52.64
2019-03-09T03:33:58.125Z,52.83
2019-03-09T03:36:32.906Z,52.98
2019-03-09T03:39:09.283Z,53.21
2019-03-09T03:41:43.754Z,53.27
2019-03-09T03:44:18.324Z,53.47
2019-03-09T03:46:52.710Z,53.60
2019-03-09T03:49:27.281Z,53.64
2019-03-09T03:52:01.785Z,53.80
2019-03-09T03:54:36.131Z,53.67
2019-03-09T03:57:10.694Z,53.61
2019-03-09T03:59:45.287Z,53.61
2019-03-09T04:04:27.628Z,53.77
2019-03-09T04:07:02.344Z,53.72
2019-03-09T04:10:14.756Z,53.45
2019-03-09T04:12:49.294Z,53.37
2019-03-09T04:15:23.881Z,53.15
2019-03-09T04:17:56.867Z,53.15
2019-03-09T04:20:31.288Z,52.94
2019-03-09T04:23:06.299Z,52.96
2019-03-09T04:25:40.889Z,52.92
2019-03-09T04:28:15.356Z,53.05
2019-03-09T04:30:49.935Z,52.87
2019-03-09T04:33:22.873Z,52.61
2019-03-09T04:35:57.287Z,52.63
2019-03-09T04:38:31.728Z,52.79
2019-03-09T04:41:06.268Z,52.78
2019-03-09T04:43:42.295Z,52.93
2019-03-09T04:46:16.752Z,53.16
2019-03-09T04:48:51.277Z,53.03
2019-03-09T04:51:25.706Z,53.34
2019-03-09T04:54:00.279Z,53.32
2019-03-09T04:56:34.709Z,53.43
2019-03-09T04:59:09.285Z,53.48
2019-03-09T05:01:43.925Z,53.48
2019-03-09T05:04:53.432Z,53.62
2019-03-09T05:08:00.779Z,53.69
2019-03-09T05:11:00.604Z,53.46
2019-03-09T05:13:49.319Z,53.35
2019-03-09T05:16:24.296Z,53.14
2019-03-09T05:18:58.876Z,53.28
2019-03-09T05:21:33.276Z,53.29
2019-03-09T05:24:07.789Z,53.16
2019-03-09T05:26:41.048Z,53.04
2019-03-09T05:29:14.041Z,53.50
2019-03-09T05:31:47.045Z,53.83
2019-03-09T05:34:20.063Z,53.65
2019-03-09T05:36:52.995Z,53.57
2019-03-09T05:39:27.271Z,53.93
2019-03-09T05:42:01.714Z,54.24
2019-03-09T05:44:36.265Z,54.47
2019-03-09T05:47:10.711Z,54.37
2019-03-09T05:49:45.269Z,54.59
2019-03-09T05:52:39.296Z,54.58
2019-03-09T05:55:19.690Z,54.76
2019-03-09T05:57:54.279Z,55.71
2019-03-09T06:00:28.769Z,56.89
2019-03-09T06:03:03.387Z,57.56
2019-03-09T06:05:43.662Z,58.85
2019-03-09T06:08:19.652Z,60.10
2019-03-09T06:10:54.266Z,61.17
2019-03-09T06:13:28.718Z,61.17
2019-03-09T06:16:03.275Z,62.28
2019-03-09T06:18:37.713Z,62.28
2019-03-09T06:21:12.300Z,63.00
2019-03-09T06:23:46.864Z,63.50
2019-03-09T06:26:19.802Z,64.58
2019-03-09T06:28:54.973Z,65.87
2019-03-09T06:31:29.687Z,66.62
2019-03-09T06:34:04.281Z,66.62
2019-03-09T06:37:08.733Z,66.78
2019-03-09T06:39:55.554Z,67.76
2019-03-09T06:42:51.716Z,68.90
2019-03-09T06:45:26.279Z,70.19
2019-03-09T06:48:00.712Z,70.77
2019-03-09T06:50:33.858Z,71.16
2019-03-09T06:53:11.774Z,72.04
2019-03-09T06:55:44.859Z,72.31
2019-03-09T06:58:19.286Z,72.31
2019-03-09T07:00:53.789Z,72.44
2019-03-09T07:03:28.278Z,73.31
2019-03-09T07:06:02.692Z,72.93
2019-03-09T07:08:39.433Z,73.71
2019-03-09T07:12:24.689Z,73.57
2019-03-09T07:15:30.280Z,73.55
2019-03-09T07:18:12.015Z,73.71
2019-03-09T07:20:46.700Z,73.19
2019-03-09T07:23:21.280Z,73.19
2019-03-09T07:25:55.745Z,73.17
2019-03-09T07:28:30.288Z,72.88
2019-03-09T07:31:04.745Z,72.60
2019-03-09T07:33:40.172Z,72.51
2019-03-09T07:36:14.636Z,72.19
2019-03-09T07:38:49.277Z,71.18
2019-03-09T07:41:25.318Z,71.18
2019-03-09T07:43:59.715Z,70.26
2019-03-09T07:49:17.271Z,68.49
2019-03-09T07:51:51.706Z,67.76
2019-03-09T07:54:26.114Z,66.72
2019-03-09T07:57:00.658Z,66.26
2019-03-09T07:59:35.274Z,66.26
2019-03-09T08:02:09.703Z,66.07
2019-03-09T08:04:45.292Z,66.31
2019-03-09T08:07:19.778Z,65.45
2019-03-09T08:09:52.802Z,64.48
2019-03-09T08:12:26.944Z,64.21
2019-03-09T08:15:00.041Z,63.78
2019-03-09T08:17:34.456Z,63.82
2019-03-09T08:20:11.265Z,63.25
2019-03-09T08:22:45.756Z,62.89
2019-03-09T08:25:20.273Z,63.09
2019-03-09T08:27:54.716Z,62.49
2019-03-09T08:30:29.269Z,62.26
2019-03-09T08:33:04.418Z,61.84
2019-03-09T08:35:39.300Z,61.71
2019-03-09T08:38:17.954Z,61.69
2019-03-09T08:40:52.682Z,57.63
2019-03-09T08:43:27.285Z,57.63
2019-03-09T08:46:01.929Z,51.24
2019-03-09T08:48:36.342Z,46.81
2019-03-09T08:51:10.991Z,42.87
2019-03-09T08:53:45.723Z,46.55
2019-03-09T08:56:20.554Z,46.55
2019-03-09T09:00:38.116Z,51.36
2019-03-09T09:03:16.300Z,51.75
2019-03-09T09:05:50.953Z,53.52
2019-03-09T09:08:25.307Z,53.52
2019-03-09T09:10:59.945Z,53.80
2019-03-09T09:13:34.325Z,54.78
2019-03-09T09:16:08.930Z,55.71
2019-03-09T09:18:43.330Z,55.21
2019-03-09T09:21:17.933Z,55.45
2019-03-09T09:23:53.347Z,56.46
2019-03-09T09:26:27.857Z,56.76
2019-03-09T09:29:04.585Z,57.31
2019-03-09T09:31:39.271Z,57.67
2019-03-09T09:34:13.868Z,57.87
2019-03-09T09:36:47.089Z,57.88
2019-03-09T09:39:21.807Z,58.44
2019-03-09T09:41:54.854Z,58.44
2019-03-09T09:44:29.277Z,57.92
2019-03-09T09:47:42.596Z,56.48
2019-03-09T09:50:16.034Z,56.48
2019-03-09T09:52:51.919Z,55.33
2019-03-09T09:55:26.281Z,55.87
2019-03-09T09:58:01.279Z,52.86
2019-03-09T10:00:36.257Z,52.86
2019-03-09T10:03:15.979Z,53.03
2019-03-09T10:05:50.721Z,54.59
2019-03-09T10:08:25.362Z,54.59
2019-03-09T10:11:00.106Z,54.65
2019-03-09T10:13:34.882Z,55.04
2019-03-09T10:16:08.199Z,55.73
2019-03-09T10:18:42.329Z,55.13
2019-03-09T10:21:17.161Z,55.36
2019-03-09T10:23:51.683Z,53.73
2019-03-09T10:26:26.790Z,54.62
2019-03-09T10:29:01.568Z,55.24
2019-03-09T10:31:36.253Z,55.36
2019-03-09T10:34:10.943Z,56.04
2019-03-09T10:36:45.412Z,56.05
2019-03-09T10:39:19.954Z,56.55
2019-03-09T10:41:54.706Z,56.46
2019-03-09T10:44:30.274Z,56.46
2019-03-09T10:47:05.116Z,56.28
2019-03-09T10:49:39.942Z,56.50
2019-03-09T10:52:14.471Z,55.77
2019-03-09T10:54:50.110Z,55.77
2019-03-09T10:57:25.120Z,55.89
2019-03-09T10:59:59.944Z,55.55
2019-03-09T11:02:34.734Z,54.80
2019-03-09T11:05:10.338Z,54.80
2019-03-09T11:07:45.108Z,53.86
2019-03-09T11:10:19.749Z,53.65
2019-03-09T11:12:53.832Z,53.65
2019-03-09T11:15:28.293Z,52.96
2019-03-09T11:18:02.976Z,52.65
2019-03-09T11:20:37.787Z,51.35
2019-03-09T11:23:16.489Z,51.35
2019-03-09T11:25:51.111Z,51.16
2019-03-09T11:28:25.890Z,48.82
2019-03-09T11:31:00.291Z,48.15
2019-03-09T11:33:34.948Z,48.15
2019-03-09T11:36:08.024Z,48.41
2019-03-09T11:38:41.129Z,49.12
2019-03-09T11:41:18.970Z,49.91
2019-03-09T11:43:51.408Z,50.43
2019-03-09T11:46:26.108Z,50.38
2019-03-09T11:49:00.640Z,50.49
2019-03-09T11:51:35.285Z,50.49
2019-03-09T11:54:09.773Z,51.06
2019-03-09T11:56:44.270Z,51.92
2019-03-09T11:59:18.975Z,51.92
2019-03-09T12:01:53.312Z,51.46
2019-03-09T12:04:28.266Z,51.71
2019-03-09T12:07:02.960Z,51.58
2019-03-09T12:09:36.238Z,51.75
2019-03-09T12:14:47.276Z,51.36
2019-03-09T12:17:21.691Z,51.36
2019-03-09T12:19:56.280Z,51.30
2019-03-09T12:22:31.260Z,51.83
2019-03-09T12:25:05.802Z,52.19
2019-03-09T12:27:39.266Z,52.32
2019-03-09T12:30:16.277Z,52.27
2019-03-09T12:32:50.943Z,52.27
2019-03-09T12:35:25.405Z,52.12
2019-03-09T12:37:59.955Z,52.28
2019-03-09T12:40:34.438Z,51.85
2019-03-09T12:43:13.759Z,51.51
2019-03-09T12:45:48.281Z,51.10
2019-03-09T12:48:22.942Z,50.32
2019-03-09T12:50:57.290Z,50.65
2019-03-09T12:53:31.951Z,49.79
2019-03-09T12:56:06.787Z,46.98
2019-03-09T12:58:41.301Z,46.98
2019-03-09T13:01:17.023Z,46.77
2019-03-09T13:03:52.330Z,47.36
2019-03-09T13:06:27.131Z,47.87
2019-03-09T13:09:01.720Z,47.52
2019-03-09T13:11:38.138Z,45.71
2019-03-09T13:14:12.781Z,44.23
2019-03-09T13:16:49.296Z,44.23
2019-03-09T13:19:24.364Z,42.05
2019-03-09T13:21:59.325Z,42.40
2019-03-09T13:24:34.278Z,43.27
2019-03-09T13:27:09.613Z,43.15
2019-03-09T13:29:44.288Z,43.15
2019-03-09T13:32:19.351Z,45.42
2019-03-09T13:34:55.286Z,45.42
2019-03-09T13:37:30.108Z,45.73
2019-03-09T13:40:04.948Z,46.28
2019-03-09T13:42:38.093Z,47.23
2019-03-09T13:45:37.373Z,45.93
2019-03-09T13:48:14.759Z,46.66
2019-03-09T13:50:48.590Z,47.29
2019-03-09T13:53:23.286Z,48.81
2019-03-09T13:55:57.691Z,49.08
2019-03-09T13:58:31.001Z,50.09
2019-03-09T14:01:04.053Z,49.80
2019-03-09T14:03:38.609Z,50.20
2019-03-09T14:06:13.798Z,50.20
2019-03-09T14:08:48.652Z,50.77
2019-03-09T14:11:24.870Z,51.14
2019-03-09T14:13:58.196Z,51.42
2019-03-09T14:16:32.950Z,52.18
2019-03-09T14:19:07.300Z,52.18
2019-03-09T14:21:42.134Z,51.92
2019-03-09T14:24:16.937Z,51.75
2019-03-09T14:26:51.664Z,52.27
2019-03-09T14:29:26.142Z,51.31
2019-03-09T14:32:00.874Z,50.46
2019-03-09T14:34:34.047Z,51.27
2019-03-09T14:37:07.002Z,51.27
2019-03-09T14:39:40.861Z,50.76
2019-03-09T14:42:13.846Z,48.75
2019-03-09T14:44:48.312Z,49.67
2019-03-09T14:47:23.090Z,49.77
2019-03-09T14:49:57.508Z,48.17
2019-03-09T14:52:32.270Z,48.17
2019-03-09T14:55:07.274Z,48.01
2019-03-09T14:57:42.818Z,44.59
2019-03-09T15:00:19.285Z,44.59
2019-03-09T15:02:54.247Z,47.88
2019-03-09T15:05:28.952Z,47.88
2019-03-09T15:08:04.343Z,48.61
2019-03-09T15:10:39.386Z,45.84
2019-03-09T15:13:17.271Z,44.39
2019-03-09T15:15:52.278Z,43.85
2019-03-09T15:18:27.000Z,43.85
2019-03-09T15:21:02.276Z,45.94
2019-03-09T15:23:36.957Z,43.62
2019-03-09T15:26:11.707Z,43.62
2019-03-09T15:28:45.288Z,45.59
2019-03-09T15:31:19.950Z,46.79
2019-03-09T15:33:54.904Z,48.09
2019-03-09T15:36:29.379Z,49.12
2019-03-09T15:39:05.258Z,50.03
2019-03-09T15:41:40.589Z,50.03
2019-03-09T15:44:15.296Z,47.38
2019-03-09T15:46:50.318Z,46.69
2019-03-09T15:49:24.778Z,49.21
2019-03-09T15:51:58.116Z,49.37
2019-03-09T15:54:32.672Z,50.22
2019-03-09T15:57:07.724Z,50.53
2019-03-09T15:59:42.313Z,51.07
2019-03-09T16:02:17.251Z,51.47
2019-03-09T16:04:51.936Z,51.47
2019-03-09T16:07:26.439Z,51.55
2019-03-09T16:10:00.933Z,51.59
2019-03-09T16:12:35.775Z,51.69
2019-03-09T16:15:13.298Z,52.32
2019-03-09T16:17:47.949Z,51.79
2019-03-09T16:20:22.428Z,52.16
2019-03-09T16:22:57.340Z,52.16
2019-03-09T16:25:31.943Z,51.84
2019-03-09T16:28:07.040Z,51.61
2019-03-09T16:30:42.890Z,51.11
2019-03-09T16:33:20.857Z,51.11
2019-03-09T16:35:55.303Z,51.14
2019-03-09T16:38:30.116Z,51.38
2019-03-09T16:41:05.063Z,51.54
2019-03-09T16:43:39.652Z,51.80
2019-03-09T16:46:14.288Z,51.80
2019-03-09T16:48:48.862Z,51.91
2019-03-09T16:54:08.726Z,52.14
2019-03-09T16:56:42.033Z,52.14
2019-03-09T16:59:15.099Z,52.25
2019-03-09T17:01:49.890Z,52.50
2019-03-09T17:06:13.933Z,52.83
2019-03-09T17:08:48.307Z,53.45
2019-03-09T17:11:23.693Z,53.45
2019-03-09T17:24:07.702Z,54.45
2019-03-09T17:26:42.269Z,55.86
2019-03-09T17:29:16.789Z,56.27
2019-03-09T17:31:51.269Z,57.08
2019-03-09T17:34:25.735Z,57.80
2019-03-09T17:37:00.106Z,58.82
2019-03-09T17:39:34.699Z,59.54
2019-03-09T17:42:09.083Z,60.42
2019-03-09T17:44:43.709Z,61.65
2019-03-09T17:47:18.278Z,62.86
2019-03-09T17:49:52.771Z,63.67
2019-03-09T17:52:26.954Z,64.51
2019-03-09T17:56:59.672Z,65.59
2019-03-09T17:59:33.857Z,65.59
2019-03-09T18:02:08.354Z,66.07
2019-03-09T18:04:43.276Z,66.53
2019-03-09T18:07:18.125Z,66.29
2019-03-09T18:09:52.682Z,65.85
2019-03-09T18:12:27.277Z,65.63
2019-03-09T18:15:01.686Z,66.29
2019-03-09T18:19:36.771Z,68.97
2019-03-09T18:22:11.275Z,70.66
2019-03-09T18:24:46.392Z,72.04
2019-03-09T18:27:20.894Z,72.90
2019-03-09T18:29:53.856Z,72.92
2019-03-09T18:32:28.124Z,72.06
2019-03-09T18:35:02.678Z,72.33
2019-03-09T18:39:11.281Z,72.01
2019-03-09T18:41:45.624Z,70.06
2019-03-09T18:44:20.409Z,70.06
2019-03-09T18:46:55.295Z,68.81
2019-03-09T18:49:29.939Z,68.78
2019-03-09T18:52:04.414Z,67.71
2019-03-09T18:54:38.864Z,67.21
2019-03-09T18:57:13.285Z,66.68
2019-03-09T18:59:47.938Z,66.48
2019-03-09T19:02:22.333Z,66.91
2019-03-09T19:04:56.815Z,67.73
2019-03-09T19:07:29.791Z,69.41
2019-03-09T19:10:04.098Z,66.73
2019-03-09T19:12:38.647Z,63.63
2019-03-09T19:15:14.641Z,64.32
2019-03-09T19:17:49.271Z,63.68
2019-03-09T19:20:23.758Z,63.21
2019-03-09T19:25:39.272Z,62.85
2019-03-09T19:28:16.483Z,62.85
2019-03-09T19:30:50.940Z,62.74
2019-03-09T19:33:24.999Z,62.84
2019-03-09T19:35:58.630Z,63.23
2019-03-09T19:38:33.097Z,62.74
2019-03-09T19:41:08.691Z,63.27
2019-03-09T19:43:43.099Z,63.19
2019-03-09T19:46:17.654Z,63.38
2019-03-09T19:48:52.238Z,63.38
2019-03-09T19:51:26.730Z,63.13
2019-03-09T19:54:01.285Z,63.13
2019-03-09T19:56:36.672Z,62.95
2019-03-09T19:59:11.285Z,62.34
2019-03-09T20:01:45.748Z,61.95
2019-03-09T20:04:20.286Z,61.58
2019-03-09T20:06:54.903Z,61.52
2019-03-09T20:09:28.015Z,61.18
2019-03-09T20:12:02.266Z,61.09
2019-03-09T20:14:36.785Z,60.75
2019-03-09T20:17:11.329Z,60.41
2019-03-09T20:19:45.895Z,60.06
2019-03-09T20:22:20.287Z,59.67
2019-03-09T20:24:54.941Z,58.93
2019-03-09T20:27:28.091Z,58.93
2019-03-09T20:30:00.861Z,58.13
2019-03-09T20:32:35.344Z,58.47
2019-03-09T20:35:10.328Z,58.02
2019-03-09T20:37:45.287Z,57.97
2019-03-09T20:40:19.939Z,57.37
2019-03-09T20:42:54.351Z,57.81
2019-03-09T20:45:29.943Z,57.72
2019-03-09T20:48:04.728Z,57.00
2019-03-09T20:50:45.280Z,56.71
2019-03-09T20:53:20.274Z,56.54
2019-03-09T20:55:54.942Z,56.50
2019-03-09T20:58:28.298Z,56.60
2019-03-09T21:01:03.117Z,56.94
2019-03-09T21:03:37.780Z,56.94
2019-03-09T21:06:12.287Z,56.36
2019-03-09T21:08:46.908Z,56.33
2019-03-09T21:11:21.340Z,56.10
2019-03-09T21:13:56.269Z,56.43
2019-03-09T21:16:30.880Z,56.52
2019-03-09T21:19:04.104Z,56.09
2019-03-09T21:21:38.345Z,55.65
2019-03-09T21:24:13.139Z,55.65
2019-03-09T21:26:47.879Z,55.75
2019-03-09T21:29:22.365Z,55.38
2019-03-09T21:31:56.947Z,55.73
2019-03-09T21:34:31.191Z,55.43
2019-03-09T21:37:05.720Z,55.68
2019-03-09T21:39:40.277Z,55.63
2019-03-09T21:42:14.860Z,55.50
2019-03-09T21:44:48.006Z,55.57
2019-03-09T21:47:22.291Z,55.55
2019-03-09T21:49:56.916Z,55.59
2019-03-09T21:52:31.347Z,55.46
2019-03-09T21:55:06.279Z,54.94
2019-03-09T21:57:40.955Z,54.79
2019-03-09T22:00:16.287Z,54.70
2019-03-09T22:02:51.112Z,54.70
2019-03-09T22:05:25.913Z,54.41
2019-03-09T22:07:58.867Z,54.66
2019-03-09T22:10:33.279Z,55.14
2019-03-09T22:13:08.596Z,54.97
2019-03-09T22:15:43.284Z,55.12
2019-03-09T22:18:21.280Z,54.81
2019-03-09T22:20:55.771Z,54.56
2019-03-09T22:23:30.329Z,54.18
2019-03-09T22:26:04.927Z,54.04
2019-03-09T22:28:37.995Z,53.96
2019-03-09T22:31:10.866Z,54.14
2019-03-09T22:33:45.291Z,54.14
2019-03-09T22:36:19.953Z,53.70
2019-03-09T22:38:53.063Z,54.11
2019-03-09T22:41:27.408Z,53.79
2019-03-09T22:44:01.962Z,53.74
2019-03-09T22:46:36.646Z,54.26
2019-03-09T22:49:11.170Z,54.26
2019-03-09T22:51:45.906Z,54.79
2019-03-09T22:54:20.786Z,54.97
2019-03-09T22:56:55.286Z,55.44
2019-03-09T22:59:30.263Z,55.04
2019-03-09T23:02:04.936Z,55.54
2019-03-09T23:04:39.054Z,55.54
2019-03-09T23:07:12.387Z,55.98
2019-03-09T23:09:47.440Z,56.31
2019-03-09T23:12:21.958Z,56.14
2019-03-09T23:14:56.393Z,56.37
2019-03-09T23:17:30.943Z,56.12
2019-03-09T23:20:04.049Z,56.12
2019-03-09T23:22:38.016Z,56.42
2019-03-09T23:25:11.297Z,56.72
2019-03-09T23:27:46.192Z,56.90
2019-03-09T23:30:20.941Z,56.66
2019-03-09T23:32:53.879Z,56.60
2019-03-09T23:35:28.281Z,56.87
2019-03-09T23:38:03.045Z,56.89
2019-03-09T23:40:37.795Z,56.52
2019-03-09T23:43:45.728Z,57.38
2019-03-09T23:46:20.310Z,57.38
2019-03-09T23:48:55.351Z,57.41
2019-03-09T23:51:29.794Z,57.63
2019-03-09T23:54:04.288Z,57.62
2019-03-09T23:56:38.791Z,57.60
2019-03-09T23:59:13.282Z,57.74
